Time;durP1;ratioP1;P1;durP2;ratioP2;P2;SDS_P1;SDS_P2;PMS_P1;PMS_P2;Temp;Humidity;BMP_temperature;BMP_pressure;BME280_temperature;BME280_humidity;BME280_pressure;Samples;Min_cycle;Max_cycle;Signal;HPM_P1;HPM_P2
2022/09/22 00:01:18;;;;;;;1.67;0.90;;;10.60;95.30;;;;;;5036375;28;20037;-67
2022/09/22 00:03:49;;;;;;;2.05;0.93;;;10.50;95.20;;;;;;5036432;28;20037;-67
2022/09/22 00:06:26;;;;;;;1.40;0.90;;;10.50;95.20;;;;;;5034188;28;20079;-67
2022/09/22 00:08:55;;;;;;;2.05;1.17;;;10.40;95.10;;;;;;5039360;28;20425;-67
2022/09/22 00:11:27;;;;;;;2.00;1.00;;;10.40;95.10;;;;;;5041208;28;20025;-67
2022/09/22 00:14:20;;;;;;;2.33;1.10;;;10.40;95.30;;;;;;5038382;28;20035;-67
2022/09/22 00:16:49;;;;;;;3.22;1.02;;;10.30;95.30;;;;;;5038402;28;20044;-67
2022/09/22 00:19:18;;;;;;;2.15;1.00;;;10.30;95.20;;;;;;5036481;28;20096;-67
2022/09/22 00:21:44;;;;;;;1.23;1.00;;;10.20;95.50;;;;;;5035974;28;20131;-67
2022/09/22 00:24:11;;;;;;;1.95;1.20;;;10.10;95.30;;;;;;5033549;28;20044;-67
2022/09/22 00:26:38;;;;;;;1.20;1.00;;;10.10;95.40;;;;;;5034365;28;20520;-67
2022/09/22 00:29:08;;;;;;;3.13;1.23;;;10.10;95.50;;;;;;5041287;28;20040;-67
2022/09/22 00:31:36;;;;;;;1.25;1.05;;;10.10;95.60;;;;;;5040632;28;20036;-67
2022/09/22 00:34:02;;;;;;;3.92;1.05;;;10.00;95.60;;;;;;5036005;28;20033;-67
2022/09/22 00:36:28;;;;;;;1.35;1.00;;;10.00;95.60;;;;;;5038223;28;20029;-67
2022/09/22 00:38:55;;;;;;;1.42;1.08;;;10.00;95.60;;;;;;5035272;28;20087;-67
2022/09/22 00:41:22;;;;;;;2.47;1.08;;;9.90;95.60;;;;;;5035808;28;20045;-67
2022/09/22 00:43:50;;;;;;;1.77;1.10;;;9.90;95.70;;;;;;5032555;28;20112;-67
2022/09/22 00:46:27;;;;;;;1.55;1.00;;;9.90;96.10;;;;;;5040456;28;20144;-67
2022/09/22 00:48:59;;;;;;;2.13;0.93;;;9.90;96.00;;;;;;5037719;28;20044;-68
2022/09/22 00:51:30;;;;;;;1.92;1.02;;;9.90;96.00;;;;;;5036725;28;20485;-67
2022/09/22 00:53:56;;;;;;;1.33;0.98;;;9.90;96.00;;;;;;5039135;28;20044;-66
2022/09/22 00:56:33;;;;;;;1.17;0.80;;;9.80;96.10;;;;;;5036732;28;20025;-67
2022/09/22 00:59:15;;;;;;;2.22;1.00;;;9.90;96.00;;;;;;5033594;28;20048;-68
2022/09/22 01:01:41;;;;;;;1.17;1.00;;;9.80;96.10;;;;;;5035016;28;20044;-67
2022/09/22 01:04:07;;;;;;;1.08;0.95;;;9.80;96.10;;;;;;5035865;28;20025;-67
2022/09/22 01:06:35;;;;;;;1.15;0.82;;;9.80;96.00;;;;;;5040848;28;20079;-67
2022/09/22 01:09:01;;;;;;;1.02;0.88;;;9.80;96.10;;;;;;5040045;28;20522;-66
2022/09/22 01:11:28;;;;;;;1.33;0.90;;;9.80;96.00;;;;;;5038621;28;20024;-68
2022/09/22 01:14:25;;;;;;;2.15;1.00;;;9.80;96.00;;;;;;5036441;28;20144;-67
2022/09/22 01:17:09;;;;;;;1.92;0.98;;;9.70;95.90;;;;;;5035321;28;20021;-68
2022/09/22 01:19:53;;;;;;;1.30;0.80;;;9.60;95.50;;;;;;5034598;28;20519;-68
2022/09/22 01:22:25;;;;;;;2.92;1.10;;;9.60;95.30;;;;;;5036975;28;20041;-67
2022/09/22 01:25:12;;;;;;;3.17;1.10;;;9.50;95.20;;;;;;5041034;28;20133;-67
2022/09/22 01:27:59;;;;;;;1.77;1.10;;;9.50;95.00;;;;;;5033867;28;20029;-67
2022/09/22 01:30:48;;;;;;;1.55;1.10;;;9.40;95.00;;;;;;5038936;28;20029;-67
2022/09/22 01:33:27;;;;;;;2.20;1.33;;;9.30;95.10;;;;;;5035383;28;20034;-67
2022/09/22 01:36:24;;;;;;;2.25;1.10;;;9.30;94.90;;;;;;5034615;28;20673;-68
2022/09/22 01:39:19;;;;;;;2.05;1.20;;;9.20;95.10;;;;;;5034426;28;20021;-68
2022/09/22 01:42:11;;;;;;;1.10;1.00;;;9.20;95.40;;;;;;5035938;28;20094;-67
2022/09/22 01:45:08;;;;;;;1.65;0.95;;;9.20;95.70;;;;;;5034283;28;20060;-68
2022/09/22 01:47:54;;;;;;;2.35;1.05;;;9.20;95.80;;;;;;5036922;28;20033;-67
2022/09/22 01:50:26;;;;;;;2.13;1.08;;;9.10;95.80;;;;;;5036892;28;20773;-67
2022/09/22 01:52:54;;;;;;;1.38;1.10;;;9.10;95.90;;;;;;5032024;28;20029;-67
2022/09/22 01:55:31;;;;;;;1.77;0.88;;;9.20;96.00;;;;;;5034639;28;20037;-68
2022/09/22 01:58:03;;;;;;;1.60;1.17;;;9.20;96.00;;;;;;5030828;28;20038;-67
2022/09/22 02:00:31;;;;;;;1.42;0.93;;;9.10;95.90;;;;;;5033406;28;20044;-67
2022/09/22 02:03:03;;;;;;;2.03;1.05;;;9.10;95.90;;;;;;5036591;28;20037;-67
2022/09/22 02:06:08;;;;;;;1.10;1.00;;;9.10;95.80;;;;;;5036041;28;20037;-66
2022/09/22 02:08:40;;;;;;;1.88;1.15;;;9.10;95.90;;;;;;5036846;28;20517;-67
2022/09/22 02:11:13;;;;;;;1.60;1.00;;;9.10;96.00;;;;;;5035417;28;20047;-67
2022/09/22 02:13:40;;;;;;;7.13;1.20;;;9.10;96.00;;;;;;5034497;28;20120;-67
2022/09/22 02:16:07;;;;;;;2.72;1.23;;;9.00;95.90;;;;;;5034499;28;20038;-67
2022/09/22 02:18:52;;;;;;;1.63;1.15;;;9.00;95.90;;;;;;5032985;28;20037;-67
2022/09/22 02:21:19;;;;;;;1.63;1.17;;;9.00;95.90;;;;;;5039431;28;20088;-67
2022/09/22 02:23:47;;;;;;;0.88;0.80;;;9.00;95.80;;;;;;5042312;28;20029;-67
2022/09/22 02:26:22;;;;;;;1.20;1.10;;;9.00;95.70;;;;;;5039607;28;20136;-67
2022/09/22 02:28:52;;;;;;;1.73;1.00;;;8.90;95.50;;;;;;5038660;28;20021;-67
2022/09/22 02:31:19;;;;;;;1.17;1.00;;;8.90;95.60;;;;;;5038027;28;20268;-67
2022/09/22 02:33:45;;;;;;;1.15;0.88;;;8.90;95.70;;;;;;5037161;28;20093;-68
2022/09/22 02:36:16;;;;;;;1.00;0.90;;;8.80;95.70;;;;;;5034457;28;20893;-67
2022/09/22 02:38:54;;;;;;;1.00;0.80;;;8.80;95.60;;;;;;5036413;28;20214;-68
2022/09/22 02:41:31;;;;;;;1.90;0.98;;;8.80;95.70;;;;;;5042988;28;20028;-67
2022/09/22 02:44:06;;;;;;;;;;;8.80;95.80;;;;;;5039397;28;20036;-67
2022/09/22 02:46:45;;;;;;;3.08;1.10;;;8.80;95.70;;;;;;5038512;28;20285;-67
2022/09/22 02:49:17;;;;;;;3.78;1.40;;;8.70;95.70;;;;;;5036609;28;20064;-67
2022/09/22 02:51:45;;;;;;;0.93;0.82;;;8.70;95.80;;;;;;5037266;28;20044;-67
2022/09/22 02:54:13;;;;;;;2.60;1.15;;;8.70;95.70;;;;;;5035543;28;20037;-67
2022/09/22 02:56:40;;;;;;;1.25;1.00;;;8.60;95.70;;;;;;5035393;28;20036;-67
2022/09/22 02:59:08;;;;;;;1.40;0.88;;;8.60;95.80;;;;;;5042182;28;20102;-67
2022/09/22 03:01:34;;;;;;;2.60;1.00;;;8.60;95.80;;;;;;5041744;28;20167;-68
2022/09/22 03:04:01;;;;;;;1.90;1.20;;;8.60;95.70;;;;;;5039430;28;20641;-67
2022/09/22 03:06:27;;;;;;;1.50;1.30;;;8.60;95.60;;;;;;5039303;28;20443;-67
2022/09/22 03:08:52;;;;;;;2.42;1.08;;;8.60;95.40;;;;;;5036504;28;20055;-69
2022/09/22 03:11:18;;;;;;;1.88;1.10;;;8.50;95.40;;;;;;5036029;28;20432;-67
2022/09/22 03:13:45;;;;;;;2.45;1.17;;;8.50;95.30;;;;;;5034736;28;20677;-67
2022/09/22 03:16:11;;;;;;;0.90;0.90;;;8.50;95.40;;;;;;5041097;28;20065;-67
2022/09/22 03:18:36;;;;;;;1.77;1.00;;;8.40;95.40;;;;;;5042802;28;20036;-67
2022/09/22 03:21:03;;;;;;;1.40;1.00;;;8.40;95.30;;;;;;5039923;28;20033;-67
2022/09/22 03:23:29;;;;;;;1.10;1.00;;;8.40;95.30;;;;;;5041266;28;20021;-67
2022/09/22 03:25:54;;;;;;;1.45;0.90;;;8.40;95.30;;;;;;5038153;28;20033;-67
2022/09/22 03:28:20;;;;;;;1.98;1.15;;;8.30;95.30;;;;;;5038696;28;20126;-68
2022/09/22 03:30:46;;;;;;;1.13;0.95;;;8.30;95.40;;;;;;5040019;28;20529;-67
2022/09/22 03:33:12;;;;;;;1.05;0.95;;;8.30;95.50;;;;;;5035142;28;20480;-68
2022/09/22 03:35:38;;;;;;;1.05;0.90;;;8.30;95.50;;;;;;5039936;28;20032;-69
2022/09/22 03:38:04;;;;;;;1.17;1.02;;;8.30;95.60;;;;;;5040578;28;20033;-67
2022/09/22 03:40:30;;;;;;;1.30;0.85;;;8.30;95.50;;;;;;5040191;28;20477;-69
2022/09/22 03:42:56;;;;;;;2.50;1.00;;;8.20;95.20;;;;;;5037708;28;20033;-67
2022/09/22 03:45:22;;;;;;;2.15;0.88;;;8.20;95.10;;;;;;5037139;28;20025;-66
2022/09/22 03:47:47;;;;;;;2.08;1.00;;;8.20;95.20;;;;;;5035569;28;20029;-67
2022/09/22 03:50:13;;;;;;;4.97;1.08;;;8.20;95.10;;;;;;5033892;28;20034;-67
2022/09/22 03:52:41;;;;;;;2.22;0.90;;;8.20;94.90;;;;;;5033935;28;20025;-67
2022/09/22 03:55:08;;;;;;;1.90;1.02;;;8.20;94.80;;;;;;5039969;28;20099;-67
2022/09/22 03:57:34;;;;;;;1.10;1.00;;;8.10;94.80;;;;;;5041872;28;20060;-68
2022/09/22 04:00:00;;;;;;;2.28;0.90;;;8.10;94.80;;;;;;5039724;28;20103;-67
2022/09/22 04:02:26;;;;;;;1.23;0.77;;;8.00;94.80;;;;;;5036177;28;20029;-67
2022/09/22 04:04:52;;;;;;;1.00;0.73;;;8.00;94.90;;;;;;5040584;28;20037;-66
2022/09/22 04:07:18;;;;;;;0.93;0.88;;;8.00;95.20;;;;;;5036550;28;20092;-67
2022/09/22 04:09:43;;;;;;;4.68;1.63;;;7.90;95.30;;;;;;5035502;28;20029;-67
2022/09/22 04:12:09;;;;;;;2.38;1.00;;;8.00;95.40;;;;;;5037271;28;20048;-67
2022/09/22 04:14:35;;;;;;;1.35;0.95;;;7.90;95.10;;;;;;5042714;28;20061;-67
2022/09/22 04:17:03;;;;;;;1.35;1.15;;;7.90;95.20;;;;;;5040934;28;20087;-67
2022/09/22 04:19:34;;;;;;;3.67;1.40;;;7.90;95.20;;;;;;5040238;28;20060;-67
2022/09/22 04:22:00;;;;;;;1.70;1.30;;;7.90;95.40;;;;;;5036890;28;20082;-67
2022/09/22 04:24:26;;;;;;;1.77;1.10;;;7.90;95.70;;;;;;5035924;28;20039;-67
2022/09/22 04:26:51;;;;;;;1.90;1.10;;;7.90;95.90;;;;;;5036966;28;20115;-67
2022/09/22 04:29:17;;;;;;;2.10;1.23;;;7.90;95.30;;;;;;5035578;28;20082;-67
2022/09/22 04:31:43;;;;;;;3.17;1.40;;;7.90;95.10;;;;;;5034954;28;20123;-67
2022/09/22 04:34:08;;;;;;;2.17;1.00;;;7.80;95.10;;;;;;5040981;28;20730;-67
2022/09/22 04:36:34;;;;;;;4.38;1.30;;;7.80;94.90;;;;;;5041106;28;20803;-66
2022/09/22 04:39:02;;;;;;;2.75;1.17;;;7.80;94.80;;;;;;5038217;28;20039;-67
2022/09/22 04:41:29;;;;;;;1.88;1.20;;;7.80;94.70;;;;;;5038359;28;20032;-67
2022/09/22 04:43:54;;;;;;;4.82;1.10;;;7.80;94.60;;;;;;5035276;28;20072;-67
2022/09/22 04:46:20;;;;;;;1.33;1.05;;;7.70;94.60;;;;;;5034854;28;20061;-67
2022/09/22 04:48:46;;;;;;;7.95;1.40;;;7.70;94.70;;;;;;5033508;28;20104;-68
2022/09/22 04:51:12;;;;;;;1.77;1.05;;;7.70;94.70;;;;;;5036046;28;20032;-67
2022/09/22 04:53:37;;;;;;;2.75;1.20;;;7.70;94.80;;;;;;5041167;28;20100;-68
2022/09/22 04:56:03;;;;;;;1.92;1.00;;;7.70;94.80;;;;;;5038551;28;20044;-67
2022/09/22 04:58:29;;;;;;;2.35;1.63;;;7.60;94.90;;;;;;5038764;28;20037;-67
2022/09/22 05:01:01;;;;;;;1.65;1.33;;;7.60;94.90;;;;;;5035875;28;20037;-67
2022/09/22 05:03:27;;;;;;;2.33;2.08;;;7.60;94.90;;;;;;5036118;28;20437;-66
2022/09/22 05:05:54;;;;;;;2.72;1.58;;;7.60;94.90;;;;;;5033096;28;20114;-66
2022/09/22 05:08:20;;;;;;;2.30;1.40;;;7.50;95.00;;;;;;5033729;28;20033;-68
2022/09/22 05:10:46;;;;;;;3.17;1.60;;;7.60;95.20;;;;;;5041066;28;20851;-70
2022/09/22 05:13:12;;;;;;;1.98;1.23;;;7.50;95.30;;;;;;5039294;28;20090;-67
2022/09/22 05:15:39;;;;;;;3.45;1.40;;;7.50;95.40;;;;;;5041175;28;20115;-68
2022/09/22 05:18:05;;;;;;;2.35;1.30;;;7.60;95.70;;;;;;5035732;28;20489;-66
2022/09/22 05:20:31;;;;;;;8.05;1.33;;;7.60;95.90;;;;;;5037153;28;20078;-67
2022/09/22 05:22:57;;;;;;;1.92;1.30;;;7.70;96.10;;;;;;5035906;28;20037;-67
2022/09/22 05:25:23;;;;;;;4.13;1.30;;;7.70;96.10;;;;;;5034639;28;20590;-66
2022/09/22 05:27:51;;;;;;;4.75;1.45;;;7.70;96.20;;;;;;5033559;28;20033;-67
2022/09/22 05:30:19;;;;;;;3.40;1.67;;;7.70;96.00;;;;;;5040439;28;20041;-68
2022/09/22 05:32:46;;;;;;;3.88;1.70;;;7.80;95.80;;;;;;5040046;28;20033;-67
2022/09/22 05:35:14;;;;;;;1.75;1.20;;;7.80;95.40;;;;;;5037443;28;20471;-67
2022/09/22 05:37:43;;;;;;;4.22;1.58;;;7.70;95.20;;;;;;5040041;28;20365;-67
2022/09/22 05:40:10;;;;;;;6.65;1.67;;;7.70;95.10;;;;;;5034214;28;20120;-67
2022/09/22 05:42:44;;;;;;;2.65;1.60;;;7.70;94.90;;;;;;5035146;28;20063;-67
2022/09/22 05:45:10;;;;;;;3.53;1.45;;;7.70;94.90;;;;;;5032038;28;20486;-67
2022/09/22 05:47:37;;;;;;;3.45;1.65;;;7.70;94.80;;;;;;5037369;28;20027;-67
2022/09/22 05:50:04;;;;;;;5.85;1.40;;;7.70;94.80;;;;;;5035790;28;20111;-66
2022/09/22 05:52:29;;;;;;;6.28;1.70;;;7.70;95.00;;;;;;5038999;28;20112;-67
2022/09/22 05:54:56;;;;;;;2.90;1.40;;;7.70;95.00;;;;;;5036799;28;20124;-67
2022/09/22 05:57:24;;;;;;;2.15;1.30;;;7.80;94.90;;;;;;5037457;28;20036;-68
2022/09/22 05:59:50;;;;;;;14.07;3.13;;;7.80;95.00;;;;;;5037854;28;20037;-67
2022/09/22 06:02:16;;;;;;;2.50;1.45;;;7.80;95.10;;;;;;5037250;28;20517;-67
2022/09/22 06:04:42;;;;;;;2.95;1.48;;;7.80;95.20;;;;;;5035677;28;20037;-68
2022/09/22 06:07:08;;;;;;;2.67;1.48;;;7.90;95.30;;;;;;5041660;28;20029;-67
2022/09/22 06:09:33;;;;;;;1.80;1.30;;;7.90;95.40;;;;;;5043477;28;20029;-68
2022/09/22 06:11:59;;;;;;;3.67;1.75;;;7.90;95.40;;;;;;5040434;28;20045;-68
2022/09/22 06:14:25;;;;;;;2.30;1.58;;;8.00;95.50;;;;;;5038755;28;20143;-67
2022/09/22 06:16:52;;;;;;;3.20;1.55;;;8.00;95.60;;;;;;5040439;28;20112;-67
2022/09/22 06:19:18;;;;;;;2.83;2.15;;;8.10;95.80;;;;;;5037753;28;20040;-67
2022/09/22 06:21:44;;;;;;;2.30;1.90;;;8.10;96.20;;;;;;5036309;28;20040;-68
2022/09/22 06:24:11;;;;;;;3.75;2.00;;;8.20;96.50;;;;;;5034570;28;20148;-68
2022/09/22 06:26:37;;;;;;;3.05;1.90;;;8.30;96.60;;;;;;5043539;28;20025;-67
2022/09/22 06:29:02;;;;;;;4.32;2.15;;;8.40;96.80;;;;;;5041564;28;20040;-68
2022/09/22 06:31:28;;;;;;;2.78;2.30;;;8.50;96.80;;;;;;5041131;28;20028;-67
2022/09/22 06:33:54;;;;;;;3.97;2.20;;;8.60;97.00;;;;;;5039089;28;20763;-68
2022/09/22 06:36:29;;;;;;;2.45;2.03;;;8.70;97.10;;;;;;5036711;28;20118;-68
2022/09/22 06:38:57;;;;;;;3.28;2.15;;;8.80;97.30;;;;;;5035982;28;20056;-68
2022/09/22 06:41:24;;;;;;;2.63;2.05;;;8.90;97.50;;;;;;5036268;28;20029;-70
2022/09/22 06:43:54;;;;;;;4.00;2.42;;;9.00;97.60;;;;;;5039998;28;20052;-71
2022/09/22 06:46:25;;;;;;;4.25;2.40;;;9.10;97.70;;;;;;5041751;28;20063;-68
2022/09/22 06:48:56;;;;;;;3.97;3.22;;;9.20;97.70;;;;;;5039017;28;20025;-69
2022/09/22 06:51:27;;;;;;;3.58;2.75;;;9.30;97.80;;;;;;5039951;28;20107;-69
2022/09/22 06:53:53;;;;;;;4.15;2.60;;;9.40;98.00;;;;;;5037505;28;20390;-68
2022/09/22 06:56:24;;;;;;;2.90;2.38;;;9.50;98.00;;;;;;5037022;28;20417;-67
2022/09/22 06:58:51;;;;;;;5.28;2.70;;;9.60;98.10;;;;;;5035464;28;20037;-68
2022/09/22 07:01:18;;;;;;;7.55;2.90;;;9.70;98.10;;;;;;5034847;28;20030;-67
2022/09/22 07:03:44;;;;;;;3.83;2.58;;;9.80;98.20;;;;;;5039333;28;20116;-67
2022/09/22 07:06:16;;;;;;;4.50;2.70;;;9.90;98.30;;;;;;5040721;28;20032;-67
2022/09/22 07:08:43;;;;;;;3.95;2.80;;;10.10;98.80;;;;;;5040268;28;20532;-67
2022/09/22 07:11:09;;;;;;;3.88;3.25;;;10.30;98.70;;;;;;5037678;28;20825;-67
2022/09/22 07:13:37;;;;;;;4.78;3.45;;;10.50;98.60;;;;;;5038896;28;20078;-67
2022/09/22 07:16:06;;;;;;;4.93;2.70;;;10.70;98.30;;;;;;5038028;28;20104;-69
2022/09/22 07:18:32;;;;;;;5.40;2.92;;;10.80;98.10;;;;;;5036847;28;20116;-67
2022/09/22 07:21:06;;;;;;;3.80;2.47;;;10.90;97.80;;;;;;5036266;28;20036;-67
2022/09/22 07:23:35;;;;;;;4.22;2.83;;;10.90;97.80;;;;;;5039394;28;20032;-68
2022/09/22 07:26:03;;;;;;;6.10;2.70;;;11.10;97.90;;;;;;5041024;28;20022;-68
2022/09/22 07:28:30;;;;;;;9.48;3.38;;;11.10;97.90;;;;;;5043122;28;20036;-67
2022/09/22 07:31:05;;;;;;;5.82;3.08;;;11.30;97.80;;;;;;5039177;28;20038;-68
2022/09/22 07:33:35;;;;;;;4.82;3.10;;;11.50;98.00;;;;;;5038295;28;20028;-68
2022/09/22 07:36:09;;;;;;;4.63;2.65;;;11.70;97.70;;;;;;5034443;28;20770;-68
2022/09/22 07:38:40;;;;;;;5.20;3.20;;;12.00;97.20;;;;;;5035966;28;20083;-68
2022/09/22 07:41:11;;;;;;;2.50;2.30;;;12.30;96.60;;;;;;5039233;28;20266;-68
2022/09/22 07:43:38;;;;;;;2.45;2.10;;;12.50;95.90;;;;;;5039410;28;20064;-68
2022/09/22 07:46:04;;;;;;;3.85;1.92;;;12.60;95.30;;;;;;5037302;28;20047;-68
2022/09/22 07:48:36;;;;;;;3.25;1.88;;;12.70;94.80;;;;;;5038687;28;20811;-68
2022/09/22 07:51:04;;;;;;;4.03;2.33;;;12.80;94.60;;;;;;5035214;28;20047;-69
2022/09/22 07:53:30;;;;;;;2.03;1.73;;;12.90;94.00;;;;;;5036202;28;20064;-68
2022/09/22 07:56:03;;;;;;;4.05;2.50;;;13.00;93.80;;;;;;5033948;28;20164;-68
2022/09/22 07:58:29;;;;;;;3.38;2.30;;;13.00;93.60;;;;;;5035668;28;20124;-66
2022/09/22 08:00:55;;;;;;;4.03;2.30;;;13.00;93.50;;;;;;5042911;28;20067;-68
2022/09/22 08:03:21;;;;;;;2.42;1.80;;;13.00;93.50;;;;;;5041329;28;20028;-68
2022/09/22 08:05:48;;;;;;;3.33;1.70;;;13.00;93.30;;;;;;5038689;28;20084;-68
2022/09/22 08:08:15;;;;;;;10.18;2.20;;;13.00;93.30;;;;;;5037753;28;20036;-67
2022/09/22 08:10:41;;;;;;;2.83;1.23;;;13.10;93.00;;;;;;5038875;28;20048;-68
2022/09/22 08:13:08;;;;;;;4.70;1.50;;;13.10;92.30;;;;;;5034169;28;20537;-68
2022/09/22 08:15:34;;;;;;;1.83;1.33;;;13.20;91.70;;;;;;5039620;28;20025;-68
2022/09/22 08:18:03;;;;;;;6.07;1.52;;;13.20;91.40;;;;;;5035474;28;20408;-68
2022/09/22 08:20:29;;;;;;;3.10;1.63;;;13.30;91.60;;;;;;5041488;28;20029;-68
2022/09/22 08:23:01;;;;;;;3.35;1.50;;;13.30;91.50;;;;;;5040208;28;20547;-68
2022/09/22 08:25:27;;;;;;;2.83;1.50;;;13.40;91.70;;;;;;5037268;28;20797;-68
2022/09/22 08:27:53;;;;;;;2.67;1.20;;;13.50;91.60;;;;;;5037126;28;20040;-68
2022/09/22 08:30:19;;;;;;;3.45;1.67;;;13.60;91.40;;;;;;5036552;28;20407;-68
2022/09/22 08:32:45;;;;;;;3.72;1.75;;;13.70;91.30;;;;;;5034880;28;20033;-68
2022/09/22 08:35:11;;;;;;;2.58;1.50;;;13.80;91.20;;;;;;5033300;28;20486;-68
2022/09/22 08:37:37;;;;;;;3.92;1.20;;;13.90;90.60;;;;;;5037941;28;20029;-67
2022/09/22 08:40:04;;;;;;;2.50;1.10;;;14.10;90.10;;;;;;5041271;28;20040;-68
2022/09/22 08:42:32;;;;;;;1.80;1.00;;;14.20;89.90;;;;;;5039923;28;20028;-68
2022/09/22 08:45:05;;;;;;;1.73;1.30;;;14.30;89.00;;;;;;5037446;28;20028;-68
2022/09/22 08:53:24;;;;;;;2.47;1.08;;;14.80;87.60;;;;;;5034656;28;20041;-67
2022/09/22 08:56:04;;;;;;;2.65;1.05;;;15.10;87.00;;;;;;5034231;28;20024;-68
2022/09/22 08:58:47;;;;;;;3.15;0.95;;;15.50;85.50;;;;;;5037684;28;20065;-68
2022/09/22 09:01:38;;;;;;;1.73;0.98;;;15.80;79.60;;;;;;5038577;28;20080;-68
2022/09/22 09:04:21;;;;;;;2.33;0.85;;;16.10;79.60;;;;;;5036932;28;20041;-68
2022/09/22 09:07:07;;;;;;;1.55;0.90;;;16.20;80.00;;;;;;5035415;28;20481;-68
2022/09/22 09:09:44;;;;;;;1.83;0.90;;;16.20;79.40;;;;;;5036157;28;20033;-68
2022/09/22 09:12:46;;;;;;;2.83;0.80;;;16.10;79.80;;;;;;5032567;28;20036;-68
2022/09/22 09:15:49;;;;;;;0.80;0.70;;;15.80;77.10;;;;;;5036137;28;20120;-68
2022/09/22 09:18:20;;;;;;;1.08;0.60;;;15.70;77.60;;;;;;5039660;28;20112;-67
2022/09/22 09:20:47;;;;;;;1.73;0.75;;;15.50;79.00;;;;;;5039684;28;20033;-68
2022/09/22 09:23:22;;;;;;;0.77;0.60;;;15.40;78.00;;;;;;5035834;28;20120;-68
2022/09/22 09:25:54;;;;;;;1.13;0.52;;;15.50;78.20;;;;;;5035528;28;20104;-68
2022/09/22 09:28:41;;;;;;;2.72;0.73;;;15.50;77.00;;;;;;5034171;28;20116;-68
2022/09/22 09:31:15;;;;;;;;;;;15.70;76.80;;;;;;5033677;28;20037;-68
2022/09/22 09:34:11;;;;;;;1.38;0.60;;;15.90;78.40;;;;;;5041567;28;19912;-68
2022/09/22 09:36:44;;;;;;;1.27;0.63;;;16.00;76.30;;;;;;5041775;28;20052;-68
2022/09/22 09:39:36;;;;;;;2.13;0.60;;;16.10;76.60;;;;;;5042039;28;20044;-68
2022/09/22 09:42:25;;;;;;;0.70;0.63;;;16.20;74.80;;;;;;5040120;28;20124;-68
2022/09/22 09:44:53;;;;;;;4.43;0.90;;;16.20;72.30;;;;;;5039009;28;20078;-68
2022/09/22 09:47:28;;;;;;;1.88;0.55;;;16.40;74.20;;;;;;5037331;28;20030;-69
2022/09/22 09:49:54;;;;;;;1.17;0.88;;;16.50;73.10;;;;;;5035389;28;20101;-69
2022/09/22 09:52:20;;;;;;;0.90;0.55;;;16.60;74.80;;;;;;5040689;28;20041;-68
2022/09/22 09:54:46;;;;;;;0.73;0.68;;;16.70;73.10;;;;;;5044362;28;20025;-69
2022/09/22 09:57:14;;;;;;;0.50;0.50;;;16.90;73.40;;;;;;5041682;28;20099;-68
2022/09/22 10:02:48;;;;;;;1.45;0.50;;;17.00;67.80;;;;;;5036536;28;20033;-68
2022/09/22 10:05:16;;;;;;;0.85;0.40;;;16.80;68.20;;;;;;5037193;28;20083;-69
2022/09/22 10:07:45;;;;;;;1.27;1.17;;;16.90;66.00;;;;;;5036813;28;20021;-69
2022/09/22 10:10:37;;;;;;;0.93;0.40;;;17.30;68.70;;;;;;5033639;28;20060;-68
2022/09/22 10:13:02;;;;;;;1.02;0.63;;;17.70;63.50;;;;;;5040835;28;20051;-68
2022/09/22 10:15:36;;;;;;;1.02;0.70;;;17.80;65.20;;;;;;5043788;28;20029;-69
2022/09/22 10:18:02;;;;;;;1.00;0.55;;;18.20;63.40;;;;;;5039425;28;20913;-68
2022/09/22 10:20:31;;;;;;;1.13;0.50;;;18.80;58.80;;;;;;5040354;28;20033;-68
2022/09/22 10:23:19;;;;;;;2.53;0.68;;;19.70;57.20;;;;;;5035389;28;20037;-68
2022/09/22 10:25:44;;;;;;;0.52;0.52;;;21.30;53.10;;;;;;5034375;28;20029;-68
2022/09/22 10:28:17;;;;;;;2.70;0.70;;;22.70;51.40;;;;;;5034575;28;20068;-68
2022/09/22 10:30:56;;;;;;;1.52;0.65;;;23.80;47.00;;;;;;5040378;28;20033;-68
2022/09/22 10:33:22;;;;;;;1.50;0.50;;;23.30;48.90;;;;;;5057743;28;20043;-68
2022/09/22 10:36:14;;;;;;;3.20;0.60;;;21.90;53.50;;;;;;5038697;28;20025;-68
2022/09/22 10:38:41;;;;;;;0.70;0.60;;;20.70;57.00;;;;;;5030632;28;20564;-68
2022/09/22 10:41:09;;;;;;;0.50;0.50;;;20.10;58.20;;;;;;5036685;28;20122;-69
2022/09/22 10:44:00;;;;;;;0.77;0.52;;;19.50;59.30;;;;;;5035782;28;20247;-68
2022/09/22 10:47:06;;;;;;;1.05;0.80;;;19.00;61.40;;;;;;5032295;28;20039;-67
2022/09/22 10:49:56;;;;;;;1.23;0.68;;;18.60;63.20;;;;;;5043010;28;20033;-68
2022/09/22 10:52:48;;;;;;;0.88;0.63;;;18.20;61.90;;;;;;5041784;28;20568;-68
2022/09/22 10:55:34;;;;;;;0.50;0.47;;;17.90;63.30;;;;;;5039192;28;20048;-68
2022/09/22 10:58:03;;;;;;;1.48;0.47;;;17.70;64.20;;;;;;5037332;28;20678;-68
2022/09/22 11:00:36;;;;;;;0.65;0.63;;;17.50;62.90;;;;;;5037122;28;20036;-68
2022/09/22 11:03:07;;;;;;;0.93;0.50;;;17.50;64.30;;;;;;5034627;28;20037;-68
2022/09/22 11:14:57;;;;;;;4.38;1.08;;;17.70;68.20;;;;;;5039756;28;20132;-68
2022/09/22 11:17:39;;;;;;;2.42;0.60;;;17.90;66.00;;;;;;5039319;28;20029;-68
2022/09/22 11:20:23;;;;;;;0.82;0.50;;;18.00;64.90;;;;;;5034602;28;20037;-68
2022/09/22 11:23:26;;;;;;;1.40;0.70;;;17.90;66.20;;;;;;5037147;28;20590;-68
2022/09/22 11:26:18;;;;;;;1.20;0.50;;;17.70;66.60;;;;;;5036869;28;20022;-68
2022/09/22 11:29:21;;;;;;;0.60;0.60;;;17.60;65.20;;;;;;5040781;28;20080;-68
2022/09/22 11:31:47;;;;;;;1.10;0.55;;;17.50;65.80;;;;;;5037364;28;20484;-68
2022/09/22 11:34:58;;;;;;;1.80;0.40;;;17.50;66.90;;;;;;5038843;28;20084;-69
2022/09/22 11:38:01;;;;;;;0.63;0.45;;;17.40;66.30;;;;;;5037712;28;20029;-67
2022/09/22 11:40:42;;;;;;;2.35;0.47;;;17.30;65.20;;;;;;5037194;28;20421;-68
2022/09/22 11:43:27;;;;;;;0.60;0.50;;;17.20;64.30;;;;;;5037424;28;20065;-68
2022/09/22 11:46:00;;;;;;;1.02;0.60;;;17.10;65.40;;;;;;5043347;28;20036;-68
2022/09/22 11:48:44;;;;;;;1.30;0.60;;;17.20;67.40;;;;;;5036560;28;20032;-68
2022/09/22 11:51:16;;;;;;;1.90;0.60;;;17.20;66.70;;;;;;5039560;28;20116;-68
2022/09/22 11:53:50;;;;;;;0.93;0.40;;;17.20;66.30;;;;;;5039201;28;20101;-68
2022/09/22 11:56:42;;;;;;;0.85;0.40;;;17.20;62.80;;;;;;5035713;28;20056;-68
2022/09/22 11:59:21;;;;;;;0.95;0.60;;;17.20;60.40;;;;;;5035039;28;20042;-67
2022/09/22 12:01:48;;;;;;;1.92;0.52;;;17.40;61.40;;;;;;5034633;28;20050;-68
2022/09/22 12:04:43;;;;;;;0.65;0.40;;;17.50;59.20;;;;;;5038259;28;20025;-68
2022/09/22 12:07:23;;;;;;;1.00;0.30;;;17.70;60.00;;;;;;5039960;28;20136;-68
2022/09/22 12:10:21;;;;;;;3.47;0.32;;;17.80;56.20;;;;;;5038742;28;20024;-69
2022/09/22 12:12:50;;;;;;;1.88;0.60;;;17.90;60.90;;;;;;5037690;28;20118;-68
2022/09/22 12:15:32;;;;;;;1.08;0.43;;;18.00;57.60;;;;;;5039752;28;20056;-68
2022/09/22 12:18:48;;;;;;;1.83;0.60;;;18.00;58.60;;;;;;5034879;28;20025;-68
2022/09/22 12:21:42;;;;;;;1.10;0.45;;;17.80;59.70;;;;;;5038048;28;20049;-68
2022/09/22 12:24:10;;;;;;;0.73;0.40;;;17.70;58.00;;;;;;5040110;28;20497;-68
2022/09/22 12:26:38;;;;;;;1.08;0.43;;;17.80;58.40;;;;;;5041894;28;20033;-68
2022/09/22 12:29:19;;;;;;;1.85;0.50;;;17.90;59.10;;;;;;5040564;28;20120;-68
2022/09/22 12:31:48;;;;;;;1.00;0.43;;;18.00;59.50;;;;;;5037580;28;20025;-68
2022/09/22 12:34:18;;;;;;;0.98;0.25;;;18.00;60.40;;;;;;5036425;28;20037;-68
2022/09/22 12:36:45;;;;;;;0.40;0.40;;;18.10;58.80;;;;;;5035538;28;20544;-68
2022/09/22 12:39:10;;;;;;;1.33;0.45;;;18.20;60.00;;;;;;5033677;28;20030;-68
2022/09/22 12:41:49;;;;;;;0.73;0.30;;;18.30;57.70;;;;;;5033080;28;20401;-68
2022/09/22 12:44:25;;;;;;;0.45;0.40;;;18.30;58.50;;;;;;5041854;28;20033;-68
2022/09/22 12:46:57;;;;;;;1.23;0.60;;;18.30;57.90;;;;;;5036986;28;20036;-69
2022/09/22 12:49:23;;;;;;;1.10;0.40;;;18.40;56.30;;;;;;5038924;28;20404;-68
2022/09/22 12:51:50;;;;;;;0.40;0.40;;;18.50;59.10;;;;;;5037463;28;20044;-68
2022/09/22 12:54:22;;;;;;;2.40;0.40;;;18.50;57.10;;;;;;5035837;28;20037;-67
2022/09/22 12:57:05;;;;;;;0.30;0.20;;;18.50;56.00;;;;;;5033644;28;20076;-68
2022/09/22 12:59:34;;;;;;;1.10;0.50;;;18.40;58.70;;;;;;5038917;28;20392;-68
2022/09/22 13:02:15;;;;;;;1.85;0.70;;;18.40;57.90;;;;;;5038804;28;20619;-68
2022/09/22 13:05:01;;;;;;;0.95;0.30;;;18.40;59.00;;;;;;5036649;28;20037;-69
2022/09/22 13:07:40;;;;;;;0.60;0.40;;;18.40;58.90;;;;;;5035429;28;20037;-68
2022/09/22 13:10:23;;;;;;;0.95;0.40;;;18.40;57.30;;;;;;5036099;28;20025;-69
2022/09/22 13:13:11;;;;;;;1.00;0.52;;;18.40;56.80;;;;;;5036689;28;20033;-68
2022/09/22 13:15:48;;;;;;;1.95;0.47;;;18.50;54.50;;;;;;5037971;28;20112;-68
2022/09/22 13:18:33;;;;;;;0.22;0.20;;;18.60;55.10;;;;;;5032074;28;20478;-68
2022/09/22 13:21:24;;;;;;;1.00;0.50;;;18.60;59.80;;;;;;5037696;28;20040;-68
2022/09/22 13:23:53;;;;;;;0.60;0.30;;;18.70;55.30;;;;;;5039498;28;20480;-68
2022/09/22 13:26:34;;;;;;;3.20;0.38;;;18.70;56.50;;;;;;5037933;28;20041;-69
2022/09/22 13:29:29;;;;;;;2.35;0.43;;;18.80;55.50;;;;;;5036055;28;20033;-68
2022/09/22 13:31:56;;;;;;;1.50;0.22;;;18.70;54.20;;;;;;5036003;28;20497;-68
2022/09/22 13:34:35;;;;;;;0.30;0.30;;;18.70;52.90;;;;;;5034927;28;20040;-68
2022/09/22 13:37:23;;;;;;;0.32;0.30;;;18.60;50.60;;;;;;5030722;28;20399;-67
2022/09/22 13:39:52;;;;;;;0.65;0.65;;;18.60;52.00;;;;;;5037315;28;20495;-68